West Lebanon, Indiana
Current Conditions -  °F | °C
As of 1:35 AM on Sunday 21 Dec 2014 (Local Time) from KDNV Reporting Station
Overcast Overcast  
Wind Chill: 29°   Ceiling: 2300
Heat Index: 29°   Visibility: 7mi
Dew Point: 26°   Wind: 3mph
Humidity: 88%   Direction: 150°SSE
Pressure: 30.25"   Gusts: NA
Location:  40.27°N, 87.39°W
Report Text: KDNV 210635Z AUTO 15003KT 7SM OVC023 M02/M03 A3025 RMK AO2 T10171035
Loading
Personal Weather Stations






























Interactive Weather Map New forecast layout! Learn more

10-Day Weather Forecast

Advertisements
Track Severe Weather on mobile